createdAt,value
2022-12-04T00:01:11.550Z,73.85
2022-12-04T00:03:38.418Z,74.69
2022-12-04T00:06:07.845Z,76.41
2022-12-04T00:08:34.631Z,75.92
2022-12-04T00:11:01.773Z,76.10
2022-12-04T00:13:28.435Z,76.36
2022-12-04T00:15:55.074Z,77.24
2022-12-04T00:18:22.299Z,77.37
2022-12-04T00:20:49.203Z,77.79
2022-12-04T00:23:15.790Z,78.29
2022-12-04T00:25:42.675Z,78.16
2022-12-04T00:28:09.700Z,78.44
2022-12-04T00:30:41.331Z,77.83
2022-12-04T00:33:07.934Z,78.54
2022-12-04T00:35:34.518Z,78.79
2022-12-04T00:38:01.085Z,78.96
2022-12-04T00:40:27.683Z,78.73
2022-12-04T00:42:54.290Z,77.53
2022-12-04T00:45:20.879Z,76.96
2022-12-04T00:47:47.438Z,76.95
2022-12-04T00:50:14.087Z,76.20
2022-12-04T00:52:40.774Z,76.87
2022-12-04T00:55:08.011Z,77.81
2022-12-04T00:57:34.580Z,78.25
2022-12-04T01:00:01.183Z,78.18
2022-12-04T01:02:27.857Z,77.32
2022-12-04T01:04:54.445Z,76.83
2022-12-04T01:07:21.022Z,76.25
2022-12-04T01:09:47.610Z,75.71
2022-12-04T01:12:20.341Z,74.91
2022-12-04T01:14:47.446Z,74.34
2022-12-04T01:17:14.224Z,74.43
2022-12-04T01:19:41.118Z,74.09
2022-12-04T01:22:07.870Z,74.16
2022-12-04T01:24:34.490Z,73.72
2022-12-04T01:27:01.080Z,73.89
2022-12-04T01:29:27.673Z,73.71
2022-12-04T01:31:54.321Z,73.48
2022-12-04T01:34:20.959Z,73.57
2022-12-04T01:36:48.422Z,73.24
2022-12-04T01:39:15.019Z,73.96
2022-12-04T01:41:41.756Z,74.74
2022-12-04T01:44:09.897Z,74.80
2022-12-04T01:46:36.642Z,74.79
2022-12-04T01:49:06.919Z,75.04
2022-12-04T01:51:37.961Z,75.10
2022-12-04T01:54:09.080Z,75.52
2022-12-04T01:56:44.933Z,76.25
2022-12-04T01:59:14.338Z,75.34
2022-12-04T02:01:50.120Z,75.61
2022-12-04T02:04:16.778Z,74.72
2022-12-04T02:06:43.389Z,75.14
2022-12-04T02:09:10.071Z,75.06
2022-12-04T02:12:15.983Z,75.20
2022-12-04T02:14:47.540Z,75.56
2022-12-04T02:17:26.443Z,75.08
2022-12-04T02:20:11.154Z,75.06
2022-12-04T02:22:52.642Z,74.35
2022-12-04T02:26:10.231Z,73.87
2022-12-04T02:28:45.701Z,74.15
2022-12-04T02:31:19.110Z,73.58
2022-12-04T02:33:54.206Z,73.72
2022-12-04T02:36:29.176Z,74.18
2022-12-04T02:39:04.847Z,74.77
2022-12-04T02:41:35.972Z,75.31
2022-12-04T02:44:10.854Z,75.27
2022-12-04T02:46:42.517Z,76.42
2022-12-04T02:49:16.501Z,75.26
2022-12-04T02:51:46.291Z,74.47
2022-12-04T02:54:36.363Z,74.60
2022-12-04T02:57:07.251Z,74.56
2022-12-04T02:59:38.098Z,74.05
2022-12-04T03:02:13.593Z,74.02
2022-12-04T03:04:42.547Z,73.94
2022-12-04T03:07:16.558Z,73.86
2022-12-04T03:09:55.125Z,73.43
2022-12-04T03:12:36.710Z,73.64
2022-12-04T03:15:20.110Z,73.10
2022-12-04T03:17:56.126Z,72.93
2022-12-04T03:20:24.027Z,72.89
2022-12-04T03:22:58.206Z,72.99
2022-12-04T03:25:34.823Z,72.91
2022-12-04T03:28:07.419Z,72.96
2022-12-04T03:30:52.590Z,73.32
2022-12-04T03:33:25.726Z,72.74
2022-12-04T03:35:52.168Z,73.57
2022-12-04T03:38:44.845Z,73.14
2022-12-04T03:41:15.225Z,73.17
2022-12-04T03:44:00.142Z,73.46
2022-12-04T03:46:35.575Z,73.15
2022-12-04T03:49:26.332Z,72.83
2022-12-04T03:52:00.134Z,72.69
2022-12-04T03:54:38.673Z,73.51
2022-12-04T03:57:14.237Z,73.48
2022-12-04T03:59:55.277Z,73.14
2022-12-04T04:02:26.075Z,74.02
2022-12-04T04:04:57.233Z,74.04
2022-12-04T04:07:35.153Z,74.86
2022-12-04T04:10:10.937Z,73.47
2022-12-04T04:12:44.494Z,73.71
2022-12-04T04:15:35.552Z,73.74
2022-12-04T04:18:21.334Z,73.66
2022-12-04T04:21:12.759Z,73.62
2022-12-04T04:24:08.442Z,73.92
2022-12-04T04:26:40.533Z,74.49
2022-12-04T04:29:08.395Z,74.91
2022-12-04T04:31:55.557Z,74.91
2022-12-04T04:34:32.598Z,75.06
2022-12-04T04:37:22.195Z,74.86
2022-12-04T04:39:57.562Z,74.46
2022-12-04T04:42:37.675Z,74.17
2022-12-04T04:45:16.692Z,73.17
2022-12-04T04:48:04.586Z,74.01
2022-12-04T04:50:33.270Z,73.17
2022-12-04T04:53:08.256Z,73.13
2022-12-04T04:55:36.226Z,73.10
2022-12-04T04:58:15.370Z,73.17
2022-12-04T05:00:53.120Z,73.37
2022-12-04T05:03:19.748Z,73.63
2022-12-04T05:05:46.366Z,73.46
2022-12-04T05:08:13.008Z,73.79
2022-12-04T05:10:39.625Z,73.08
2022-12-04T05:13:09.412Z,72.70
2022-12-04T05:15:36.209Z,72.57
2022-12-04T05:18:02.975Z,73.21
2022-12-04T05:20:29.781Z,73.21
2022-12-04T05:22:56.364Z,73.48
2022-12-04T05:25:23.185Z,73.98
2022-12-04T05:27:49.794Z,73.54
2022-12-04T05:30:16.593Z,74.14
2022-12-04T05:32:43.337Z,74.59
2022-12-04T05:35:11.510Z,74.50
2022-12-04T05:37:40.626Z,74.17
2022-12-04T05:40:08.134Z,74.56
2022-12-04T05:42:34.896Z,74.14
2022-12-04T05:45:01.506Z,74.01
2022-12-04T05:47:28.169Z,73.83
2022-12-04T05:49:55.016Z,73.83
2022-12-04T05:52:21.938Z,72.79
2022-12-04T05:54:48.505Z,72.64
2022-12-04T05:57:15.114Z,72.91
2022-12-04T05:59:41.722Z,73.38
2022-12-04T06:02:08.452Z,73.39
2022-12-04T06:04:37.088Z,74.19
2022-12-04T06:07:03.935Z,73.81
2022-12-04T06:09:30.512Z,75.47
2022-12-04T06:11:59.126Z,75.41
2022-12-04T06:14:26.025Z,75.02
2022-12-04T06:16:52.828Z,73.91
2022-12-04T06:19:21.322Z,74.89
2022-12-04T06:21:50.772Z,74.61
2022-12-04T06:24:21.705Z,74.32
2022-12-04T06:27:18.807Z,73.79
2022-12-04T06:29:35.854Z,74.43
2022-12-04T06:32:02.924Z,74.71
2022-12-04T06:34:29.760Z,75.31
2022-12-04T06:36:56.326Z,75.51
2022-12-04T06:39:23.009Z,76.12
2022-12-04T06:41:49.589Z,75.96
2022-12-04T06:44:16.645Z,74.94
2022-12-04T06:46:46.790Z,74.61
2022-12-04T06:49:14.237Z,75.07
2022-12-04T06:51:41.019Z,75.39
2022-12-04T06:54:07.970Z,75.64
2022-12-04T06:56:34.994Z,76.73
2022-12-04T06:59:03.882Z,77.05
2022-12-04T07:01:33.164Z,77.64
2022-12-04T07:04:01.244Z,78.53
2022-12-04T07:06:30.484Z,76.88
2022-12-04T07:09:17.411Z,76.54
2022-12-04T07:11:44.890Z,75.79
2022-12-04T07:14:12.385Z,75.65
2022-12-04T07:16:42.023Z,75.74
2022-12-04T07:19:10.634Z,75.92
2022-12-04T07:21:37.289Z,74.94
2022-12-04T07:24:04.237Z,75.03
2022-12-04T07:26:31.441Z,75.07
2022-12-04T07:28:59.282Z,75.35
2022-12-04T07:31:27.637Z,76.54
2022-12-04T07:33:56.225Z,75.83
2022-12-04T07:36:24.008Z,76.32
2022-12-04T07:38:51.253Z,76.39
2022-12-04T07:41:20.581Z,76.19
2022-12-04T07:43:47.533Z,75.75
2022-12-04T07:46:17.943Z,75.63
2022-12-04T07:48:44.637Z,75.31
2022-12-04T07:51:14.159Z,75.19
2022-12-04T07:53:42.101Z,75.65
2022-12-04T07:56:09.957Z,74.91
2022-12-04T07:58:36.586Z,75.33
2022-12-04T08:01:11.238Z,75.20
2022-12-04T08:03:43.551Z,74.83
2022-12-04T08:06:13.678Z,75.01
2022-12-04T08:08:40.315Z,74.72
2022-12-04T08:11:08.948Z,74.69
2022-12-04T08:13:36.082Z,74.72
2022-12-04T08:16:07.397Z,75.62
2022-12-04T08:18:34.216Z,74.78
2022-12-04T08:21:06.174Z,75.61
2022-12-04T08:23:33.010Z,75.76
2022-12-04T08:26:01.005Z,76.01
2022-12-04T08:28:28.372Z,76.41
2022-12-04T08:30:55.383Z,75.80
2022-12-04T08:33:22.127Z,75.63
2022-12-04T08:35:48.806Z,75.59
2022-12-04T08:38:15.416Z,74.70
2022-12-04T08:40:42.069Z,74.55
2022-12-04T08:43:08.625Z,75.82
2022-12-04T08:45:35.237Z,76.44
2022-12-04T08:48:02.273Z,76.76
2022-12-04T08:50:28.929Z,76.16
2022-12-04T08:52:55.521Z,76.48
2022-12-04T08:55:22.252Z,76.28
2022-12-04T08:57:51.369Z,76.92
2022-12-04T09:00:18.802Z,76.70
2022-12-04T09:02:48.390Z,77.02
2022-12-04T09:05:14.965Z,78.27
2022-12-04T09:07:41.610Z,77.08
2022-12-04T09:10:08.809Z,76.69
2022-12-04T09:12:35.397Z,77.03
2022-12-04T09:15:02.245Z,76.93
2022-12-04T09:17:28.854Z,76.54
2022-12-04T09:20:00.517Z,76.07
2022-12-04T09:22:36.246Z,75.85
2022-12-04T09:25:14.282Z,76.08
2022-12-04T09:27:44.996Z,75.98
2022-12-04T09:30:12.695Z,75.84
2022-12-04T09:32:39.481Z,75.86
2022-12-04T09:35:06.839Z,75.35
2022-12-04T09:37:33.785Z,74.77
2022-12-04T09:40:00.349Z,74.96
2022-12-04T09:42:45.545Z,74.61
2022-12-04T09:45:17.170Z,74.46
2022-12-04T09:47:47.526Z,75.24
2022-12-04T09:50:36.049Z,74.92
2022-12-04T09:53:10.483Z,74.64
2022-12-04T09:55:58.498Z,74.39
2022-12-04T09:58:38.087Z,75.39
2022-12-04T10:01:05.654Z,74.54
2022-12-04T10:03:32.553Z,73.96
2022-12-04T10:06:23.114Z,74.06
2022-12-04T10:09:20.940Z,74.45
2022-12-04T10:12:26.053Z,74.05
2022-12-04T10:15:16.934Z,74.45
2022-12-04T10:18:14.125Z,73.87
2022-12-04T10:20:55.931Z,74.17
2022-12-04T10:23:27.894Z,74.17
2022-12-04T10:25:55.258Z,74.08
2022-12-04T10:28:32.614Z,74.27
2022-12-04T10:31:04.045Z,74.33
2022-12-04T10:33:45.505Z,74.49
2022-12-04T10:36:17.423Z,74.15
2022-12-04T10:38:55.762Z,74.63
2022-12-04T10:41:28.438Z,74.37
2022-12-04T10:43:55.333Z,74.25
2022-12-04T10:46:27.971Z,74.19
2022-12-04T10:49:12.397Z,74.41
2022-12-04T10:51:41.495Z,74.69
2022-12-04T10:54:34.395Z,74.34
2022-12-04T10:57:04.520Z,74.07
2022-12-04T10:59:32.110Z,73.69
2022-12-04T11:02:15.019Z,74.15
2022-12-04T11:04:42.083Z,73.92
2022-12-04T11:07:19.383Z,74.49
2022-12-04T11:10:05.995Z,74.92
2022-12-04T11:12:33.779Z,75.46
2022-12-04T11:15:07.931Z,74.83
2022-12-04T11:17:34.645Z,74.25
2022-12-04T11:20:15.806Z,74.04
2022-12-04T11:22:52.475Z,74.11
2022-12-04T11:25:21.256Z,74.11
2022-12-04T11:27:52.098Z,73.66
2022-12-04T11:30:52.641Z,74.25
2022-12-04T11:33:28.897Z,75.35
2022-12-04T11:35:59.383Z,74.96
2022-12-04T11:38:29.124Z,74.45
2022-12-04T11:40:58.590Z,73.84
2022-12-04T11:43:28.565Z,73.78
2022-12-04T11:45:55.477Z,73.56
2022-12-04T11:48:22.615Z,72.94
2022-12-04T11:51:04.096Z,73.71
2022-12-04T11:53:39.771Z,73.63
2022-12-04T11:56:13.305Z,73.19
2022-12-04T11:59:01.700Z,73.62
2022-12-04T12:01:28.222Z,73.14
2022-12-04T12:04:19.469Z,72.92
2022-12-04T12:06:55.265Z,72.55
2022-12-04T12:09:39.868Z,72.81
2022-12-04T12:12:18.456Z,72.59
2022-12-04T12:15:00.322Z,72.84
2022-12-04T12:17:52.925Z,72.52
2022-12-04T12:20:57.171Z,72.81
2022-12-04T12:23:46.290Z,72.56
2022-12-04T12:26:15.463Z,72.14
2022-12-04T12:29:00.302Z,72.15
2022-12-04T12:31:45.762Z,72.88
2022-12-04T12:34:34.333Z,72.41
2022-12-04T12:37:09.345Z,72.66
2022-12-04T12:39:40.507Z,72.99
2022-12-04T12:42:15.370Z,73.08
2022-12-04T12:45:03.508Z,72.95
2022-12-04T12:47:42.434Z,73.07
2022-12-04T12:50:21.254Z,74.04
2022-12-04T12:52:58.094Z,73.82
2022-12-04T12:55:30.820Z,73.32
2022-12-04T12:58:15.626Z,75.23
2022-12-04T13:00:55.343Z,75.51
2022-12-04T13:03:29.934Z,75.45
2022-12-04T13:06:03.719Z,76.39
2022-12-04T13:08:49.461Z,75.55
2022-12-04T13:11:23.090Z,74.69
2022-12-04T13:13:55.743Z,74.79
2022-12-04T13:16:44.949Z,74.74
2022-12-04T13:19:26.802Z,74.46
2022-12-04T13:22:38.236Z,73.94
2022-12-04T13:25:16.934Z,74.14
2022-12-04T13:27:52.282Z,74.61
2022-12-04T13:30:21.909Z,74.10
2022-12-04T13:33:16.340Z,73.82
2022-12-04T13:35:42.889Z,73.63
2022-12-04T13:38:40.171Z,74.07
2022-12-04T13:41:11.213Z,73.29
2022-12-04T13:43:40.896Z,73.56
2022-12-04T13:46:34.190Z,73.09
2022-12-04T13:49:08.466Z,73.27
2022-12-04T13:51:37.576Z,73.15
2022-12-04T13:54:23.506Z,73.23
2022-12-04T13:56:56.017Z,73.36
2022-12-04T13:59:28.420Z,73.16
2022-12-04T14:02:06.425Z,73.07
2022-12-04T14:04:46.744Z,72.57
2022-12-04T14:07:25.991Z,72.57
2022-12-04T14:09:54.575Z,71.83
2022-12-04T14:12:28.319Z,70.39
2022-12-04T14:15:00.187Z,73.16
2022-12-04T14:17:33.697Z,72.92
2022-12-04T14:20:07.864Z,72.31
2022-12-04T14:22:37.763Z,72.36
2022-12-04T14:25:13.629Z,72.64
2022-12-04T14:27:43.187Z,72.20
2022-12-04T14:30:21.845Z,71.54
2022-12-04T14:32:52.568Z,72.50
2022-12-04T14:35:28.294Z,72.78
2022-12-04T14:38:01.847Z,71.64
2022-12-04T14:40:43.636Z,70.62
2022-12-04T14:43:38.857Z,71.34
2022-12-04T14:46:20.419Z,70.70
2022-12-04T14:49:23.712Z,70.86
2022-12-04T14:52:15.173Z,71.23
2022-12-04T14:54:50.745Z,70.49
2022-12-04T14:57:39.014Z,70.39
2022-12-04T15:00:15.977Z,70.21
2022-12-04T15:02:45.769Z,70.09
2022-12-04T15:05:28.360Z,69.86
2022-12-04T15:08:01.316Z,69.75
2022-12-04T15:10:51.917Z,69.90
2022-12-04T15:13:30.319Z,69.53
2022-12-04T15:15:57.422Z,69.66
2022-12-04T15:18:24.270Z,69.89
2022-12-04T15:20:53.964Z,69.61
2022-12-04T15:23:36.056Z,71.03
2022-12-04T15:26:15.376Z,70.06
2022-12-04T15:28:49.336Z,69.81
2022-12-04T15:31:22.796Z,69.90
2022-12-04T15:33:53.296Z,69.43
2022-12-04T15:36:39.326Z,69.20
2022-12-04T15:39:06.405Z,69.96
2022-12-04T15:41:35.973Z,70.98
2022-12-04T15:44:21.689Z,70.71
2022-12-04T15:46:48.360Z,70.14
2022-12-04T15:49:20.071Z,69.66
2022-12-04T15:51:47.960Z,69.56
2022-12-04T15:54:24.746Z,71.71
2022-12-04T15:57:02.489Z,72.17
2022-12-04T15:59:30.233Z,73.73
2022-12-04T16:02:05.171Z,74.23
2022-12-04T16:04:35.592Z,74.79
2022-12-04T16:07:02.797Z,75.69
2022-12-04T16:09:29.486Z,75.55
2022-12-04T16:12:02.051Z,75.70
2022-12-04T16:14:28.985Z,75.93
2022-12-04T16:17:05.595Z,76.82
2022-12-04T16:19:38.725Z,77.14
2022-12-04T16:22:13.137Z,78.82
2022-12-04T16:24:39.952Z,77.72
2022-12-04T16:27:14.931Z,77.48
2022-12-04T16:29:41.634Z,78.31
2022-12-04T16:32:13.158Z,79.22
2022-12-04T16:34:40.256Z,79.46
2022-12-04T16:37:15.987Z,79.60
2022-12-04T16:39:42.842Z,79.63
2022-12-04T16:42:29.933Z,79.81
2022-12-04T16:44:56.864Z,78.56
2022-12-04T16:47:23.827Z,78.60
2022-12-04T16:49:51.798Z,79.40
2022-12-04T16:52:19.007Z,80.46
2022-12-04T16:54:46.133Z,80.56
2022-12-04T16:57:12.704Z,82.03
2022-12-04T16:59:39.414Z,81.62
2022-12-04T17:02:15.629Z,81.10
2022-12-04T17:04:42.442Z,80.57
2022-12-04T17:07:09.043Z,80.25
2022-12-04T17:09:35.654Z,79.86
2022-12-04T17:12:02.213Z,80.11
2022-12-04T17:14:28.814Z,79.17
2022-12-04T17:16:56.474Z,78.66
2022-12-04T17:19:23.101Z,78.18
2022-12-04T17:21:49.690Z,77.38
2022-12-04T17:24:16.305Z,78.07
2022-12-04T17:26:42.873Z,77.90
2022-12-04T17:29:09.481Z,77.75
2022-12-04T17:31:36.148Z,77.36
2022-12-04T17:34:02.771Z,77.75
2022-12-04T17:36:29.369Z,77.14
2022-12-04T17:38:58.709Z,78.00
2022-12-04T17:41:25.397Z,78.43
2022-12-04T17:43:51.974Z,78.06
2022-12-04T17:46:21.805Z,78.94
2022-12-04T17:48:49.148Z,78.45
2022-12-04T17:51:21.780Z,78.24
2022-12-04T17:53:49.169Z,77.75
2022-12-04T17:56:19.540Z,77.17
2022-12-04T17:58:47.023Z,79.07
2022-12-04T18:01:19.867Z,80.62
2022-12-04T18:03:51.333Z,82.81
2022-12-04T18:06:24.949Z,83.38
2022-12-04T18:08:51.945Z,81.50
2022-12-04T18:11:23.935Z,80.43
2022-12-04T18:13:58.526Z,79.25
2022-12-04T18:16:26.293Z,78.17
2022-12-04T18:18:54.299Z,77.50
2022-12-04T18:21:20.864Z,77.04
2022-12-04T18:23:47.749Z,76.96
2022-12-04T18:26:17.969Z,76.45
2022-12-04T18:28:45.398Z,76.22
2022-12-04T18:31:13.622Z,75.87
2022-12-04T18:33:42.335Z,77.07
2022-12-04T18:36:14.882Z,76.58
2022-12-04T18:38:41.495Z,75.87
2022-12-04T18:41:10.893Z,75.66
2022-12-04T18:43:44.498Z,75.51
2022-12-04T18:46:16.400Z,74.75
2022-12-04T18:48:44.549Z,74.32
2022-12-04T18:51:21.082Z,76.58
2022-12-04T18:53:49.626Z,75.79
2022-12-04T18:56:17.481Z,75.58
2022-12-04T18:58:46.441Z,75.21
2022-12-04T19:01:18.372Z,74.66
2022-12-04T19:03:47.037Z,74.93
2022-12-04T19:06:14.748Z,76.31
2022-12-04T19:08:43.524Z,77.72
2022-12-04T19:11:15.654Z,77.38
2022-12-04T19:13:42.750Z,77.91
2022-12-04T19:16:14.160Z,79.13
2022-12-04T19:18:42.317Z,79.62
2022-12-04T19:21:09.336Z,80.71
2022-12-04T19:23:36.043Z,80.31
2022-12-04T19:26:03.097Z,81.06
2022-12-04T19:28:29.760Z,81.63
2022-12-04T19:30:56.755Z,80.34
2022-12-04T19:33:24.917Z,79.42
2022-12-04T19:36:05.367Z,78.84
2022-12-04T19:38:33.202Z,79.52
2022-12-04T19:41:14.617Z,79.06
2022-12-04T19:43:44.039Z,78.59
2022-12-04T19:46:13.340Z,79.76
2022-12-04T19:48:40.351Z,80.13
2022-12-04T19:51:15.541Z,80.33
2022-12-04T19:53:43.106Z,80.44
2022-12-04T19:56:15.939Z,79.86
2022-12-04T19:58:43.192Z,79.26
2022-12-04T20:01:13.198Z,79.06
2022-12-04T20:03:40.054Z,78.90
2022-12-04T20:06:11.900Z,79.03
2022-12-04T20:08:39.091Z,79.04
2022-12-04T20:11:08.473Z,79.70
2022-12-04T20:13:36.407Z,79.44
2022-12-04T20:16:04.373Z,78.54
2022-12-04T20:18:31.190Z,78.79
2022-12-04T20:20:59.816Z,79.16
2022-12-04T20:23:27.006Z,78.09
2022-12-04T20:25:54.234Z,77.63
2022-12-04T20:28:21.555Z,77.00
2022-12-04T20:30:49.923Z,76.93
2022-12-04T20:33:16.647Z,77.20
2022-12-04T20:35:43.298Z,77.32
2022-12-04T20:38:09.898Z,76.86
2022-12-04T20:40:36.554Z,76.99
2022-12-04T20:43:03.239Z,76.63
2022-12-04T20:45:30.575Z,76.36
2022-12-04T20:47:57.426Z,75.63
2022-12-04T20:50:24.598Z,76.29
2022-12-04T20:52:51.238Z,75.98
2022-12-04T20:55:18.208Z,75.79
2022-12-04T20:57:44.843Z,76.32
2022-12-04T21:00:11.962Z,77.69
2022-12-04T21:02:38.659Z,77.87
2022-12-04T21:05:05.670Z,77.85
2022-12-04T21:07:32.332Z,77.47
2022-12-04T21:09:59.539Z,78.83
2022-12-04T21:12:44.681Z,79.26
2022-12-04T21:15:29.717Z,79.48
2022-12-04T21:17:56.301Z,79.30
2022-12-04T21:20:24.208Z,79.35
2022-12-04T21:22:50.769Z,79.69
2022-12-04T21:25:17.674Z,79.63
2022-12-04T21:27:44.445Z,80.30
2022-12-04T21:30:11.463Z,80.27
2022-12-04T21:32:38.046Z,80.15
2022-12-04T21:35:05.061Z,79.94
2022-12-04T21:37:31.698Z,80.44
2022-12-04T21:39:59.609Z,79.46
2022-12-04T21:42:30.268Z,79.90
2022-12-04T21:44:58.398Z,79.11
2022-12-04T21:47:26.059Z,78.90
2022-12-04T21:49:52.642Z,78.19
2022-12-04T21:52:19.586Z,77.37
2022-12-04T21:54:50.122Z,76.64
2022-12-04T21:57:16.742Z,76.07
2022-12-04T21:59:43.440Z,75.87
2022-12-04T22:02:14.293Z,76.15
2022-12-04T22:04:41.581Z,75.94
2022-12-04T22:07:08.372Z,76.17
2022-12-04T22:09:36.390Z,76.36
2022-12-04T22:12:14.647Z,76.06
2022-12-04T22:14:49.721Z,75.85
2022-12-04T22:17:16.325Z,75.40
2022-12-04T22:19:42.915Z,75.98
2022-12-04T22:22:09.466Z,75.55
2022-12-04T22:24:36.065Z,75.74
2022-12-04T22:27:02.646Z,74.94
2022-12-04T22:32:15.847Z,75.14
2022-12-04T22:34:42.439Z,75.63
2022-12-04T22:37:09.029Z,76.11
2022-12-04T22:39:35.678Z,76.58
2022-12-04T22:42:02.242Z,76.33
2022-12-04T22:44:28.821Z,75.85
2022-12-04T22:46:55.477Z,76.10
2022-12-04T22:49:22.165Z,76.89
2022-12-04T22:51:48.731Z,76.80
2022-12-04T22:54:15.470Z,76.21
2022-12-04T22:56:44.168Z,76.23
2022-12-04T22:59:10.781Z,76.01
2022-12-04T23:01:37.362Z,75.67
2022-12-04T23:04:04.184Z,75.78
2022-12-04T23:06:32.624Z,75.26
2022-12-04T23:09:06.236Z,75.49
2022-12-04T23:11:33.184Z,75.64
2022-12-04T23:14:03.191Z,75.49
2022-12-04T23:16:31.921Z,75.81
2022-12-04T23:18:58.920Z,76.06
2022-12-04T23:21:26.376Z,76.44
2022-12-04T23:23:54.470Z,75.96
2022-12-04T23:26:24.889Z,75.80
2022-12-04T23:28:51.684Z,76.32
2022-12-04T23:31:19.233Z,76.05
2022-12-04T23:33:46.088Z,75.97
2022-12-04T23:36:13.722Z,75.68
2022-12-04T23:38:41.717Z,76.21
2022-12-04T23:41:11.642Z,75.74
2022-12-04T23:43:39.022Z,75.51
2022-12-04T23:46:10.985Z,75.63
2022-12-04T23:48:39.590Z,75.64
2022-12-04T23:51:07.166Z,75.17
2022-12-04T23:53:33.971Z,74.47
2022-12-04T23:56:06.489Z,74.22
2022-12-04T23:58:34.163Z,74.36
